Time;durP1;ratioP1;P1;durP2;ratioP2;P2;SDS_P1;SDS_P2;PMS_P1;PMS_P2;Temp;Humidity;BMP_temperature;BMP_pressure;BME280_temperature;BME280_humidity;BME280_pressure;Samples;Min_cycle;Max_cycle;Signal;HPM_P1;HPM_P2
2023/11/12 00:00:30;;;;;;;10.45;6.00;;;11.20;99.90;;;11.30;89.07;100357.50;4803312;29;20055;-64
2023/11/12 00:02:58;;;;;;;12.13;6.63;;;11.20;99.90;;;11.42;89.29;100389.94;4819444;29;20465;-64
2023/11/12 00:05:26;;;;;;;13.80;6.55;;;11.10;99.90;;;11.39;89.40;100389.13;4804147;29;20054;-64
2023/11/12 00:07:55;;;;;;;10.98;6.82;;;11.10;99.90;;;11.35;89.83;100384.78;4805136;29;20129;-64
2023/11/12 00:10:25;;;;;;;13.20;6.55;;;11.00;99.90;;;11.39;89.76;100376.78;4805712;29;20050;-64
2023/11/12 00:12:54;;;;;;;12.63;6.43;;;11.00;99.90;;;11.33;90.01;100378.63;4805224;29;20057;-64
2023/11/12 00:15:22;;;;;;;10.02;6.10;;;11.00;99.90;;;11.37;90.01;100377.69;4805374;29;20473;-64
2023/11/12 00:17:51;;;;;;;12.90;7.10;;;11.00;99.90;;;11.40;89.93;100375.84;4805058;29;20047;-65
2023/11/12 00:20:20;;;;;;;10.85;6.30;;;11.10;99.90;;;11.44;89.98;100379.34;4805347;29;20481;-64
2023/11/12 00:22:49;;;;;;;12.20;6.40;;;11.10;99.90;;;11.45;89.91;100389.03;4804994;29;20390;-64
2023/11/12 00:25:19;;;;;;;11.23;6.60;;;11.10;99.90;;;11.42;89.97;100378.50;4804959;29;20046;-64
2023/11/12 00:27:49;;;;;;;11.13;6.43;;;11.10;99.90;;;11.45;89.90;100381.97;4804947;29;20051;-64
2023/11/12 00:30:17;;;;;;;10.68;6.30;;;11.20;99.90;;;11.42;89.62;100371.41;4803674;29;20066;-64
2023/11/12 00:32:46;;;;;;;9.85;6.10;;;11.10;99.90;;;11.45;89.58;100368.72;4805178;29;20069;-64
2023/11/12 00:35:15;;;;;;;8.57;6.35;;;11.10;99.90;;;11.39;89.92;100367.94;4805410;29;20119;-64
2023/11/12 00:37:43;;;;;;;10.52;6.50;;;11.10;99.90;;;11.28;89.96;100362.84;4803581;29;20058;-64
2023/11/12 00:40:13;;;;;;;11.13;6.10;;;11.00;99.90;;;11.25;90.16;100365.50;4805215;29;20054;-64
2023/11/12 00:42:42;;;;;;;10.90;6.40;;;10.90;99.90;;;11.27;90.11;100379.59;4805249;29;20425;-65
2023/11/12 00:45:12;;;;;;;10.35;5.70;;;10.90;99.90;;;11.30;89.82;100374.28;4822590;29;20545;-65
2023/11/12 00:47:40;;;;;;;10.15;6.10;;;11.00;99.90;;;11.30;89.69;100371.63;4808618;29;20058;-64
2023/11/12 00:50:11;;;;;;;10.85;6.63;;;11.00;99.90;;;11.26;89.95;100369.91;4808697;29;20051;-64
2023/11/12 00:52:40;;;;;;;9.00;6.00;;;11.00;99.90;;;11.21;90.12;100363.81;4822548;29;20145;-64
2023/11/12 00:55:08;;;;;;;10.45;6.35;;;10.90;99.90;;;11.33;90.48;100382.16;4808698;29;20405;-64
2023/11/12 00:57:37;;;;;;;12.02;6.10;;;11.00;99.90;;;11.01;90.54;100323.53;4822589;29;20138;-65
2023/11/12 01:00:07;;;;;;;8.38;5.95;;;11.00;99.90;;;11.31;90.27;100373.34;4822456;29;20525;-65
2023/11/12 01:02:37;;;;;;;9.13;6.22;;;11.00;99.90;;;11.30;90.24;100376.03;4822464;29;20477;-64
2023/11/12 01:05:06;;;;;;;11.40;6.22;;;11.00;99.90;;;11.22;89.74;100370.88;4808853;29;20059;-65
2023/11/12 01:07:36;;;;;;;8.40;6.40;;;10.90;99.90;;;10.75;88.47;100368.88;4808586;29;20058;-64
2023/11/12 01:10:05;;;;;;;7.30;5.50;;;10.50;99.90;;;10.70;90.02;100370.69;4807302;29;20416;-64
2023/11/12 01:12:33;;;;;;;9.27;5.95;;;10.30;99.90;;;10.71;90.65;100367.16;4822292;29;20078;-64
2023/11/12 01:15:02;;;;;;;11.38;5.50;;;10.30;99.90;;;10.83;90.55;100361.72;4822215;29;20047;-65
2023/11/12 01:17:31;;;;;;;9.45;5.97;;;10.40;99.90;;;10.92;90.49;100357.22;4808426;29;20051;-65
2023/11/12 01:20:01;;;;;;;8.63;6.32;;;10.50;99.90;;;10.95;90.93;100363.31;4808409;29;20054;-64
2023/11/12 01:22:29;;;;;;;11.05;6.32;;;10.50;99.90;;;10.92;91.17;100349.28;4808410;29;20051;-65
2023/11/12 01:24:58;;;;;;;19.10;7.15;;;10.60;99.90;;;10.99;91.54;100358.84;4806993;29;20077;-64
2023/11/12 01:27:26;;;;;;;9.90;6.40;;;10.60;99.90;;;10.84;91.64;100352.00;4808328;29;20458;-65
2023/11/12 01:29:55;;;;;;;11.70;6.70;;;10.60;99.90;;;10.86;92.18;100350.19;4808308;29;20053;-64
2023/11/12 01:32:23;;;;;;;9.60;6.38;;;10.60;99.90;;;10.98;92.16;100352.69;4808085;29;20054;-65
2023/11/12 01:34:52;;;;;;;9.30;6.15;;;10.60;99.90;;;11.00;92.02;100347.34;4807297;29;20058;-65
2023/11/12 01:37:21;;;;;;;12.30;7.28;;;10.70;99.90;;;11.04;91.98;100357.88;4807312;29;20050;-65
2023/11/12 01:39:50;;;;;;;7.83;6.37;;;10.70;99.90;;;11.02;92.30;100349.09;4808350;29;20055;-65
2023/11/12 01:42:18;;;;;;;10.93;7.15;;;10.70;99.90;;;11.11;92.45;100358.69;4806902;29;20142;-64
2023/11/12 01:44:47;;;;;;;9.20;6.35;;;10.80;99.90;;;11.15;92.67;100358.59;4808170;29;20133;-65
2023/11/12 01:47:16;;;;;;;11.85;6.75;;;10.80;99.90;;;11.17;92.55;100353.31;4807926;29;20398;-64
2023/11/12 01:49:45;;;;;;;13.25;7.30;;;10.80;99.90;;;10.36;92.66;100205.47;4821803;29;20137;-64
2023/11/12 01:52:17;;;;;;;9.50;7.22;;;10.90;99.90;;;11.26;92.57;100354.03;4821582;29;20379;-64
2023/11/12 01:54:48;;;;;;;10.57;6.63;;;10.90;99.90;;;11.28;92.13;100343.41;4807403;29;20055;-65
2023/11/12 01:57:16;;;;;;;10.50;6.97;;;11.00;99.90;;;11.27;91.73;100342.53;4807756;29;20058;-64
2023/11/12 01:59:45;;;;;;;9.98;6.68;;;11.00;99.90;;;11.16;91.22;100349.78;4807435;29;20485;-64
2023/11/12 02:02:14;;;;;;;7.20;6.43;;;10.90;99.90;;;11.10;91.26;100349.88;4821330;29;20047;-64
2023/11/12 02:04:43;;;;;;;12.60;7.65;;;10.80;99.90;;;11.17;91.44;100346.22;4807467;29;20043;-64
2023/11/12 02:07:12;;;;;;;11.18;7.00;;;10.80;99.90;;;11.24;91.78;100347.88;4821273;29;20131;-65
2023/11/12 02:09:41;;;;;;;11.63;7.25;;;10.90;99.90;;;11.30;91.60;100346.91;4821143;29;20482;-64
2023/11/12 02:12:13;;;;;;;10.55;7.30;;;10.90;99.90;;;11.34;91.62;100351.25;4807466;29;20111;-64
2023/11/12 02:14:42;;;;;;;10.40;7.00;;;11.00;99.90;;;11.28;91.71;100344.31;4807422;29;20135;-66
2023/11/12 02:17:11;;;;;;;8.13;7.10;;;10.90;99.90;;;11.35;91.84;100351.22;4821029;29;20115;-64
2023/11/12 02:19:39;;;;;;;10.23;7.57;;;11.00;99.90;;;11.30;92.12;100345.16;4805930;29;20050;-64
2023/11/12 02:22:08;;;;;;;11.55;8.13;;;11.00;99.90;;;11.39;92.34;100352.06;4821287;29;20425;-65
2023/11/12 02:24:38;;;;;;;11.80;8.52;;;11.00;99.90;;;11.49;92.06;100349.25;4806406;29;20055;-65
2023/11/12 02:27:06;;;;;;;11.37;7.33;;;11.10;99.90;;;11.51;91.84;100347.44;4821595;29;20107;-64
2023/11/12 02:29:35;;;;;;;10.82;8.27;;;11.20;99.90;;;11.52;92.17;100357.13;4807684;29;20300;-64
2023/11/12 02:32:03;;;;;;;14.18;8.68;;;11.20;99.90;;;11.58;92.14;100349.09;4807674;29;20110;-65
2023/11/12 02:34:32;;;;;;;12.02;9.15;;;11.20;99.90;;;11.65;92.15;100352.50;4806360;29;20152;-64
2023/11/12 02:37:00;;;;;;;13.82;9.20;;;11.30;99.90;;;11.69;91.81;100352.44;4821435;29;20051;-64
2023/11/12 02:39:28;;;;;;;9.82;8.65;;;11.30;99.90;;;11.69;92.03;100348.94;4806276;29;20046;-64
2023/11/12 02:41:58;;;;;;;11.32;9.20;;;11.40;99.90;;;11.70;91.91;100351.56;4821005;29;20079;-64
2023/11/12 02:44:27;;;;;;;18.80;10.13;;;11.40;99.90;;;11.75;91.87;100352.34;4806130;29;20069;-64
2023/11/12 02:46:55;;;;;;;19.35;9.70;;;11.40;99.90;;;11.76;91.62;100354.09;4805973;29;20050;-64
2023/11/12 02:49:43;;;;;;;20.05;10.60;;;11.50;99.90;;;11.78;91.68;100359.38;4807117;29;20395;-64
2023/11/12 02:52:12;;;;;;;14.23;9.50;;;11.50;99.90;;;11.80;91.59;100360.22;4807690;29;20049;-64
2023/11/12 02:54:40;;;;;;;12.73;9.85;;;11.50;99.90;;;11.78;91.46;100348.78;4806003;29;20142;-65
2023/11/12 02:57:10;;;;;;;12.93;9.65;;;11.50;99.90;;;11.78;91.54;100344.34;4807280;29;20103;-64
2023/11/12 02:59:39;;;;;;;14.38;10.13;;;11.50;99.90;;;11.81;91.33;100348.72;4807210;29;20134;-64
2023/11/12 03:02:07;;;;;;;14.35;9.35;;;11.50;99.90;;;11.84;91.24;100356.63;4805745;29;20062;-64
2023/11/12 03:04:36;;;;;;;16.40;10.25;;;11.50;99.90;;;11.81;90.76;100346.06;4806646;29;20055;-65
2023/11/12 03:07:04;;;;;;;17.25;10.23;;;11.50;99.90;;;11.78;90.70;100351.44;4806639;29;20074;-64
2023/11/12 03:09:33;;;;;;;14.02;10.18;;;11.50;99.90;;;11.77;90.76;100347.00;4806993;29;20072;-64
2023/11/12 03:12:02;;;;;;;11.98;9.90;;;11.50;99.90;;;11.75;90.61;100347.03;4807047;29;20051;-65
2023/11/12 03:14:33;;;;;;;13.93;9.60;;;11.50;99.90;;;11.74;90.68;100355.91;4805737;29;20548;-64
2023/11/12 03:17:01;;;;;;;;;;;11.40;99.90;;;11.70;90.63;100348.91;4807427;29;20055;-65
2023/11/12 03:19:30;;;;;;;13.70;9.57;;;11.40;99.90;;;11.72;90.73;100348.88;4820777;29;19925;-64
2023/11/12 03:21:58;;;;;;;13.48;9.93;;;11.40;99.90;;;11.71;90.50;100344.50;4806864;29;20059;-64
2023/11/12 03:24:26;;;;;;;15.05;10.57;;;11.40;99.90;;;11.68;90.54;100353.38;4806779;29;20046;-64
2023/11/12 03:26:55;;;;;;;12.98;9.70;;;11.30;99.90;;;11.61;90.70;100343.72;4805475;29;20138;-64
2023/11/12 03:29:23;;;;;;;12.65;10.18;;;11.40;99.90;;;11.68;90.29;100347.19;4805464;29;20085;-65
2023/11/12 03:31:55;;;;;;;12.63;10.00;;;11.40;99.90;;;11.67;90.17;100343.66;4806293;29;20464;-65
2023/11/12 03:34:24;;;;;;;14.38;9.77;;;11.30;99.90;;;11.62;90.01;100341.94;4806617;29;20050;-65
2023/11/12 03:36:53;;;;;;;14.35;10.48;;;11.30;99.90;;;11.51;90.25;100335.97;4806582;29;20059;-65
2023/11/12 03:39:22;;;;;;;14.82;10.05;;;11.10;99.90;;;11.55;90.34;100335.91;4805329;29;20063;-64
2023/11/12 03:41:51;;;;;;;13.70;10.33;;;11.20;99.90;;;11.58;90.43;100330.53;4806259;29;20039;-64
2023/11/12 03:44:20;;;;;;;12.15;10.35;;;11.20;99.90;;;11.58;90.15;100332.31;4805178;29;20308;-64
2023/11/12 03:46:48;;;;;;;15.10;9.95;;;11.30;99.90;;;11.61;90.13;100327.81;4806124;29;20501;-64
2023/11/12 03:49:18;;;;;;;12.00;10.48;;;11.30;99.90;;;11.58;89.65;100333.19;4806420;29;20066;-64
2023/11/12 03:51:47;;;;;;;18.53;10.87;;;11.20;99.90;;;11.55;89.59;100330.59;4806377;29;20141;-64
2023/11/12 03:54:16;;;;;;;12.52;10.18;;;11.30;99.90;;;11.48;89.20;100331.59;4806557;29;20130;-64
2023/11/12 03:56:44;;;;;;;14.52;10.60;;;11.20;99.90;;;11.38;89.53;100337.09;4806285;29;20116;-65
2023/11/12 03:59:13;;;;;;;14.50;10.82;;;11.10;99.90;;;11.33;89.58;100331.84;4806234;29;20099;-64
2023/11/12 04:01:41;;;;;;;16.15;10.75;;;11.00;99.90;;;11.36;89.73;100331.78;4806195;29;20502;-64
2023/11/12 04:04:10;;;;;;;11.98;10.65;;;11.00;99.90;;;11.41;89.68;100335.25;4806173;29;20145;-65
2023/11/12 04:06:40;;;;;;;14.68;10.68;;;11.00;99.90;;;11.44;89.46;100343.13;4805970;29;20082;-63
2023/11/12 04:09:09;;;;;;;11.38;10.18;;;11.10;99.90;;;11.40;89.25;100338.78;4806369;29;20058;-65
2023/11/12 04:11:40;;;;;;;16.70;10.70;;;11.10;99.90;;;11.35;88.97;100329.16;4806050;29;20057;-64
2023/11/12 04:14:09;;;;;;;12.88;10.88;;;11.10;99.90;;;11.33;89.07;100331.84;4804816;29;20054;-64
2023/11/12 04:16:37;;;;;;;15.68;11.05;;;11.00;99.90;;;11.39;89.10;100328.22;4805803;29;20050;-64
2023/11/12 04:19:05;;;;;;;15.10;11.40;;;11.10;99.90;;;11.36;88.82;100328.28;4805969;29;20125;-64
2023/11/12 04:21:34;;;;;;;16.88;11.10;;;11.10;99.90;;;11.36;88.61;100328.28;4804684;29;20055;-64
2023/11/12 04:24:05;;;;;;;13.23;10.75;;;11.10;99.90;;;11.37;88.49;100333.56;4804715;29;20063;-64
2023/11/12 04:26:34;;;;;;;15.43;11.35;;;11.10;99.90;;;11.39;88.32;100330.88;4805777;29;20061;-64
2023/11/12 04:29:06;;;;;;;;;;;11.10;99.90;;;11.40;88.26;100327.34;4806391;29;20046;-63
2023/11/12 04:31:36;;;;;;;15.13;11.25;;;11.10;99.90;;;11.43;87.98;100338.75;4805970;29;19925;-64
2023/11/12 04:34:07;;;;;;;14.18;10.95;;;11.10;99.90;;;11.43;88.16;100333.44;4805868;29;20138;-64
2023/11/12 04:36:36;;;;;;;12.70;10.93;;;11.10;99.90;;;11.40;87.80;100330.84;4805871;29;20050;-63
2023/11/12 04:39:07;;;;;;;13.80;10.63;;;11.10;99.90;;;11.13;87.06;100336.56;4805852;29;20047;-64
2023/11/12 04:41:36;;;;;;;12.40;10.77;;;10.90;99.90;;;11.00;86.98;100337.66;4805833;29;20055;-64
2023/11/12 04:44:05;;;;;;;16.33;10.90;;;10.70;99.90;;;10.94;87.62;100343.03;4805512;29;20067;-64
2023/11/12 04:46:35;;;;;;;13.90;11.13;;;10.70;99.90;;;10.92;87.86;100342.19;4805904;29;20393;-64
2023/11/12 04:49:04;;;;;;;12.65;10.65;;;10.60;99.90;;;10.95;88.15;100344.81;4806091;29;20066;-64
2023/11/12 04:51:33;;;;;;;15.02;10.73;;;10.60;99.90;;;11.03;87.84;100350.88;4805682;29;20061;-63
2023/11/12 04:54:02;;;;;;;17.27;11.82;;;10.60;99.90;;;10.98;87.88;100350.03;4805420;29;20062;-64
2023/11/12 04:56:32;;;;;;;16.00;11.82;;;10.60;99.90;;;11.00;88.35;100352.66;4805629;29;20441;-64
2023/11/12 04:59:00;;;;;;;13.55;11.52;;;10.70;99.90;;;11.04;88.20;100354.34;4805465;29;20111;-63
2023/11/12 05:01:30;;;;;;;15.60;11.80;;;10.70;99.90;;;11.05;88.24;100359.66;4805554;29;20475;-64
2023/11/12 05:03:58;;;;;;;14.95;12.32;;;10.70;99.90;;;11.05;88.38;100362.31;4805632;29;20055;-64
2023/11/12 05:06:29;;;;;;;15.10;12.23;;;10.70;99.90;;;11.02;88.27;100359.69;4805502;29;20104;-63
2023/11/12 05:08:58;;;;;;;15.88;12.75;;;10.70;99.90;;;11.03;88.12;100358.81;4805360;29;20058;-64
2023/11/12 05:11:26;;;;;;;14.02;12.38;;;10.70;99.90;;;11.04;88.21;100360.53;4805253;29;20050;-64
2023/11/12 05:13:56;;;;;;;16.25;12.48;;;10.70;99.90;;;11.03;88.21;100358.81;4805227;29;20127;-64
2023/11/12 05:16:25;;;;;;;14.63;12.60;;;10.70;99.90;;;11.01;88.09;100354.41;4805270;29;20069;-64
2023/11/12 05:18:53;;;;;;;16.00;13.20;;;10.70;99.90;;;11.01;88.58;100352.66;4805242;29;20175;-64
2023/11/12 05:21:21;;;;;;;16.33;12.75;;;10.70;99.90;;;11.01;88.63;100357.94;4805705;29;20079;-63
2023/11/12 05:23:50;;;;;;;16.52;13.50;;;10.70;99.90;;;11.01;89.00;100352.66;4805095;29;20115;-65
2023/11/12 05:26:18;;;;;;;14.52;13.05;;;10.70;99.90;;;10.92;89.05;100343.97;4805108;29;20070;-63
2023/11/12 05:28:46;;;;;;;14.32;12.82;;;10.70;99.90;;;11.08;89.18;100364.88;4806093;29;20119;-63
2023/11/12 05:31:16;;;;;;;15.38;12.88;;;10.70;99.90;;;11.10;89.00;100360.44;4808461;29;20104;-63
2023/11/12 05:33:45;;;;;;;14.88;13.30;;;10.80;99.90;;;11.08;88.83;100366.66;4808696;29;20050;-63
2023/11/12 05:36:13;;;;;;;14.52;13.02;;;10.80;99.90;;;11.01;89.04;100365.00;4808628;29;20051;-63
2023/11/12 05:38:42;;;;;;;16.33;13.80;;;10.70;99.90;;;10.96;89.18;100361.53;4808351;29;20066;-63
2023/11/12 05:41:10;;;;;;;19.63;14.60;;;10.70;99.90;;;10.99;89.12;100362.38;4808306;29;20078;-63
2023/11/12 05:43:38;;;;;;;16.70;13.65;;;10.70;99.90;;;11.01;89.26;100357.94;4808130;29;20050;-63
2023/11/12 05:46:07;;;;;;;17.27;13.88;;;10.70;99.90;;;11.08;89.40;100366.66;4807164;29;20566;-64
2023/11/12 05:48:36;;;;;;;15.98;14.10;;;10.70;99.90;;;10.98;89.37;100349.16;4808153;29;20053;-63
2023/11/12 05:51:05;;;;;;;17.83;13.88;;;10.70;99.90;;;11.14;89.12;100367.44;4808193;29;20130;-63
2023/11/12 05:53:34;;;;;;;16.35;14.40;;;10.80;99.90;;;11.17;89.23;100370.03;4808035;29;20047;-64
2023/11/12 05:56:03;;;;;;;17.15;14.15;;;10.80;99.90;;;11.09;89.47;100371.91;4808041;29;20055;-64
2023/11/12 05:58:31;;;;;;;19.05;13.90;;;10.70;99.90;;;11.09;89.56;100374.56;4808239;29;20058;-63
2023/11/12 06:01:00;;;;;;;17.70;13.07;;;10.70;99.90;;;11.08;89.82;100378.13;4808149;29;20092;-63
2023/11/12 06:03:29;;;;;;;18.77;14.13;;;10.70;99.90;;;11.17;89.86;100377.13;4807908;29;20058;-63
2023/11/12 06:05:59;;;;;;;16.83;14.13;;;10.80;99.90;;;11.24;89.47;100376.13;4806939;29;20549;-63
2023/11/12 06:08:27;;;;;;;18.13;14.38;;;10.90;99.90;;;11.25;89.12;100367.28;4807677;29;20043;-63
2023/11/12 06:10:56;;;;;;;18.67;14.27;;;10.90;99.90;;;11.26;88.77;100375.22;4808279;29;20055;-63
2023/11/12 06:13:24;;;;;;;22.02;13.85;;;10.90;99.90;;;11.31;88.44;100385.72;4807690;29;20058;-63
2023/11/12 06:15:53;;;;;;;15.52;14.00;;;11.00;99.90;;;11.31;88.07;100380.41;4806650;29;20145;-63
2023/11/12 06:18:21;;;;;;;15.75;13.38;;;11.00;99.90;;;11.18;88.43;100355.91;4806596;29;20145;-63
2023/11/12 06:20:49;;;;;;;18.25;14.48;;;11.00;99.90;;;11.25;88.41;100381.38;4807827;29;20135;-64
2023/11/12 06:23:19;;;;;;;17.10;14.98;;;10.90;99.90;;;11.25;88.10;100380.50;4807551;29;20088;-63
2023/11/12 06:25:47;;;;;;;18.37;13.67;;;11.00;99.90;;;11.09;88.41;100385.16;4807559;29;20055;-63
2023/11/12 06:28:16;;;;;;;18.60;14.43;;;10.80;99.90;;;11.03;88.83;100387.03;4807729;29;20051;-63
2023/11/12 06:30:44;;;;;;;16.27;12.32;;;10.70;99.90;;;10.95;89.27;100392.44;4807959;29;20126;-63
2023/11/12 06:33:13;;;;;;;16.35;12.55;;;10.60;99.90;;;10.92;89.40;100386.31;4807640;29;20406;-63
2023/11/12 06:35:42;;;;;;;18.67;13.80;;;10.60;99.90;;;10.82;89.63;100390.81;4807600;29;20047;-63
2023/11/12 06:38:10;;;;;;;14.80;12.38;;;10.50;99.90;;;10.76;89.87;100391.78;4806421;29;20489;-63
2023/11/12 06:40:40;;;;;;;17.25;12.48;;;10.40;99.90;;;10.60;90.69;100395.53;4807198;29;20055;-64
2023/11/12 06:43:08;;;;;;;15.17;12.77;;;10.30;99.90;;;10.65;91.02;100392.81;4807391;29;20125;-64
2023/11/12 06:45:36;;;;;;;13.38;11.93;;;10.30;99.90;;;10.73;91.05;100393.59;4807185;29;20142;-64
2023/11/12 06:48:05;;;;;;;15.02;11.65;;;10.30;99.90;;;10.73;90.66;100388.31;4807378;29;20062;-64
2023/11/12 06:50:33;;;;;;;13.65;12.05;;;10.40;99.90;;;10.80;90.54;100392.63;4807055;29;20057;-64
2023/11/12 06:53:03;;;;;;;17.20;11.73;;;10.50;99.90;;;10.75;90.39;100399.75;4807052;29;20051;-65
2023/11/12 06:55:33;;;;;;;17.00;12.80;;;10.40;99.90;;;10.70;90.79;100394.50;4807246;29;20055;-64
2023/11/12 06:58:03;;;;;;;18.98;12.88;;;10.40;99.90;;;10.59;90.59;100377.00;4807330;29;20082;-64
2023/11/12 07:00:32;;;;;;;15.27;11.55;;;10.30;99.90;;;10.60;90.90;100389.34;4807124;29;20082;-64
2023/11/12 07:03:00;;;;;;;18.75;12.77;;;10.30;99.90;;;10.78;90.90;100397.06;4807428;29;20050;-64
2023/11/12 07:05:32;;;;;;;15.27;12.55;;;10.40;99.90;;;10.81;90.47;100399.66;4807099;29;20125;-64
2023/11/12 07:08:00;;;;;;;16.50;13.25;;;10.50;99.90;;;10.82;90.65;100399.63;4805749;29;20107;-64
2023/11/12 07:10:29;;;;;;;16.45;12.30;;;10.50;99.90;;;10.90;90.70;100395.13;4806716;29;20062;-63
2023/11/12 07:12:59;;;;;;;18.10;13.00;;;10.60;99.90;;;10.95;90.63;100400.38;4806724;29;20121;-63
2023/11/12 07:15:29;;;;;;;16.42;13.50;;;10.60;99.90;;;10.98;90.34;100397.66;4807070;29;20342;-65
2023/11/12 07:17:57;;;;;;;16.20;12.98;;;10.70;99.90;;;10.98;90.20;100402.06;4805207;29;20051;-64
2023/11/12 07:20:32;;;;;;;17.50;13.88;;;10.70;99.90;;;10.92;90.04;100405.69;4806712;29;20417;-63
2023/11/12 07:23:01;;;;;;;20.17;13.65;;;10.60;99.90;;;10.86;90.32;100397.81;4806382;29;20055;-63
2023/11/12 07:25:29;;;;;;;20.50;12.75;;;10.60;99.90;;;10.67;90.37;100369.88;4806675;29;20059;-65
2023/11/12 07:27:58;;;;;;;19.88;12.57;;;10.60;99.90;;;10.78;90.43;100407.66;4806729;29;20070;-64
2023/11/12 07:30:28;;;;;;;21.40;13.10;;;10.50;99.90;;;10.83;90.96;100409.34;4806389;29;20061;-66
2023/11/12 07:32:56;;;;;;;19.75;12.93;;;10.50;99.90;;;11.04;91.12;100405.53;4806449;29;20572;-64
2023/11/12 07:35:25;;;;;;;25.25;12.07;;;10.70;99.90;;;11.09;90.62;100377.22;4805294;29;20066;-64
2023/11/12 07:37:54;;;;;;;19.00;12.63;;;10.90;99.90;;;11.51;89.88;100403.06;4806238;29;20050;-63
2023/11/12 07:40:26;;;;;;;17.75;12.98;;;11.20;99.90;;;11.69;88.47;100421.31;4806089;29;20050;-63
2023/11/12 07:42:56;;;;;;;20.85;12.02;;;11.30;99.90;;;11.91;87.69;100413.00;4805872;29;20497;-63
2023/11/12 07:45:25;;;;;;;20.70;12.70;;;11.60;99.90;;;12.26;86.75;100421.22;4804996;29;20065;-64
2023/11/12 07:48:08;;;;;;;18.55;12.35;;;11.90;99.90;;;12.65;85.50;100433.72;4806446;29;20158;-64
2023/11/12 07:50:38;;;;;;;17.40;11.55;;;12.30;99.90;;;12.79;83.56;100430.81;4806288;29;20051;-65
2023/11/12 07:53:06;;;;;;;14.80;10.85;;;12.50;99.90;;;12.51;82.17;100434.00;4805627;29;20054;-65
2023/11/12 07:55:34;;;;;;;20.00;11.23;;;12.20;99.90;;;12.63;82.80;100436.41;4804843;29;20413;-65
2023/11/12 07:58:03;;;;;;;19.52;12.45;;;12.30;99.90;;;12.68;82.83;100431.00;4804569;29;20050;-64
2023/11/12 08:00:32;;;;;;;17.27;11.95;;;12.30;99.90;;;12.82;82.33;100436.91;4805926;29;20071;-66
2023/11/12 08:03:00;;;;;;;18.33;11.43;;;12.50;99.90;;;12.80;82.04;100438.72;4805908;29;20054;-64
2023/11/12 08:05:30;;;;;;;20.98;12.68;;;12.40;99.90;;;12.75;81.24;100440.59;4805862;29;20046;-65
2023/11/12 08:07:59;;;;;;;19.63;13.13;;;12.50;99.90;;;12.59;82.00;100441.81;4805821;29;20055;-65
2023/11/12 08:10:27;;;;;;;23.20;15.13;;;12.30;99.90;;;12.96;81.76;100436.63;4805788;29;20054;-65
2023/11/12 08:12:55;;;;;;;19.98;15.23;;;12.50;99.90;;;13.00;80.17;100438.31;4805710;29;20054;-64
2023/11/12 08:15:24;;;;;;;21.40;15.55;;;12.70;99.90;;;12.93;80.07;100442.88;4805679;29;20449;-64
2023/11/12 08:17:53;;;;;;;21.67;16.67;;;12.60;99.90;;;12.82;80.01;100436.91;4805885;29;20062;-63
2023/11/12 08:20:21;;;;;;;21.20;15.52;;;12.50;99.90;;;13.02;80.92;100434.72;4804415;29;20115;-62
2023/11/12 08:22:51;;;;;;;25.85;15.40;;;12.60;99.90;;;13.56;79.30;100437.97;4805951;29;20069;-62
2023/11/12 08:25:19;;;;;;;19.17;14.60;;;13.20;99.90;;;13.78;77.81;100438.31;4805617;29;20050;-62
2023/11/12 08:27:47;;;;;;;18.83;14.18;;;13.50;99.90;;;14.24;76.26;100454.88;4805743;29;20047;-61
2023/11/12 08:30:16;;;;;;;18.85;13.88;;;13.90;99.90;;;14.34;74.91;100451.09;4805639;29;20504;-61
2023/11/12 08:32:45;;;;;;;18.13;13.88;;;14.10;99.90;;;14.57;75.12;100459.34;4805453;29;20507;-62
2023/11/12 08:35:13;;;;;;;18.52;14.30;;;14.20;99.90;;;14.61;73.55;100458.34;4805997;29;20053;-62
2023/11/12 08:37:41;;;;;;;19.95;14.02;;;14.30;99.90;;;14.83;73.40;100461.25;4805717;29;20074;-65
2023/11/12 08:40:12;;;;;;;21.35;14.82;;;14.40;99.90;;;14.97;72.19;100459.97;4805519;29;20412;-64
2023/11/12 08:42:44;;;;;;;18.48;14.35;;;14.60;99.90;;;15.21;72.28;100464.56;4805409;29;20055;-66
2023/11/12 08:45:12;;;;;;;21.95;13.55;;;14.90;99.90;;;15.48;70.55;100462.03;4804470;29;20062;-62
2023/11/12 08:47:41;;;;;;;18.30;13.57;;;15.20;99.90;;;15.51;69.35;100465.47;4805605;29;20059;-62
2023/11/12 08:50:10;;;;;;;19.30;14.40;;;15.20;99.90;;;15.59;69.00;100465.22;4805686;29;20049;-63
2023/11/12 08:52:38;;;;;;;18.38;12.95;;;15.40;99.90;;;15.39;69.34;100466.69;4805255;29;20104;-63
2023/11/12 08:55:08;;;;;;;19.58;14.32;;;15.10;99.90;;;15.22;69.18;100470.75;4805320;29;20520;-63
2023/11/12 08:57:38;;;;;;;17.88;12.77;;;15.00;99.90;;;15.23;69.23;100478.69;4805613;29;20148;-63
2023/11/12 09:00:09;;;;;;;20.25;14.18;;;14.90;99.90;;;14.64;70.88;100471.56;4805253;29;20054;-63
2023/11/12 09:02:37;;;;;;;17.58;13.50;;;14.40;99.90;;;14.42;72.51;100470.38;4805349;29;20051;-64
2023/11/12 09:05:06;;;;;;;18.40;14.07;;;14.10;99.90;;;14.33;73.13;100470.63;4807574;29;20092;-63
2023/11/12 09:07:36;;;;;;;21.58;14.60;;;13.90;99.90;;;13.83;74.47;100468.31;4809180;29;20494;-64
2023/11/12 09:10:06;;;;;;;19.13;14.13;;;13.50;99.90;;;13.41;74.91;100479.03;4808767;29;20493;-65
2023/11/12 09:12:34;;;;;;;18.95;14.20;;;13.10;99.90;;;13.53;75.96;100473.44;4808977;29;20489;-65
2023/11/12 09:15:06;;;;;;;19.15;14.35;;;13.10;99.90;;;13.94;76.17;100482.22;4808635;29;20047;-65
2023/11/12 09:17:34;;;;;;;20.60;14.82;;;13.40;99.90;;;14.06;75.20;100489.91;4808687;29;20133;-64
2023/11/12 09:20:04;;;;;;;21.13;14.30;;;13.60;99.90;;;14.47;73.83;100484.44;4808507;29;20055;-65
2023/11/12 09:22:33;;;;;;;18.80;13.63;;;14.10;99.90;;;14.45;72.18;100481.84;4807387;29;20058;-65
2023/11/12 09:25:01;;;;;;;19.95;14.10;;;14.10;99.90;;;14.39;72.31;100482.00;4808215;29;20049;-65
2023/11/12 09:27:39;;;;;;;19.80;14.15;;;14.20;99.90;;;14.24;72.96;100482.34;4807179;29;20062;-66
2023/11/12 09:30:09;;;;;;;16.15;12.82;;;14.00;99.90;;;14.11;73.15;100496.84;4808727;29;20058;-64
2023/11/12 09:32:38;;;;;;;19.00;13.63;;;13.80;99.90;;;14.34;73.16;100496.34;4807196;29;20112;-63
2023/11/12 09:35:08;;;;;;;21.13;13.70;;;13.90;99.90;;;14.42;72.59;100502.31;4808336;29;20057;-63
2023/11/12 09:37:37;;;;;;;16.83;12.57;;;14.10;99.90;;;14.39;71.63;100489.97;4808270;29;20498;-65
2023/11/12 09:40:10;;;;;;;17.63;12.57;;;14.10;99.90;;;14.48;71.93;100491.50;4808111;29;20489;-65
2023/11/12 09:42:41;;;;;;;20.40;13.52;;;14.20;99.90;;;14.48;72.06;100500.38;4808568;29;20055;-65
2023/11/12 09:45:12;;;;;;;14.88;12.10;;;14.10;99.90;;;14.92;71.72;100501.84;4808817;29;20046;-68
2023/11/12 09:47:46;;;;;;;;;;;14.50;99.90;;;14.96;70.11;100508.81;4808486;29;20137;-65
2023/11/12 09:50:15;;;;;;;15.95;13.35;;;14.80;99.90;;;14.51;70.71;100504.75;4808106;29;20499;-66
2023/11/12 09:52:46;;;;;;;21.27;12.90;;;14.30;99.90;;;14.13;72.15;100491.53;4807922;29;20130;-66
2023/11/12 09:55:17;;;;;;;16.52;13.75;;;13.90;99.90;;;14.17;72.68;100471.88;4808038;29;20057;-66
2023/11/12 09:57:47;;;;;;;17.73;13.80;;;14.00;99.90;;;14.59;72.14;100500.09;4807937;29;20050;-65
2023/11/12 10:00:18;;;;;;;17.17;13.93;;;14.20;99.90;;;14.56;71.48;100502.81;4807928;29;20378;-66
2023/11/12 10:02:46;;;;;;;19.05;14.18;;;14.20;99.90;;;14.54;71.27;100499.31;4808122;29;20055;-65
2023/11/12 10:05:15;;;;;;;18.75;14.35;;;14.20;99.90;;;14.55;70.85;100497.53;4808094;29;20386;-65
2023/11/12 10:07:44;;;;;;;21.02;14.82;;;14.20;99.90;;;14.55;71.20;100474.47;4806619;29;20447;-65
2023/11/12 10:10:22;;;;;;;22.92;14.90;;;14.40;99.90;;;14.90;70.81;100503.69;4807592;29;20058;-62